Time;durP1;ratioP1;P1;durP2;ratioP2;P2;SDS_P1;SDS_P2;PMS_P1;PMS_P2;Temp;Humidity;BMP_temperature;BMP_pressure;BME280_temperature;BME280_humidity;BME280_pressure;Samples;Min_cycle;Max_cycle;Signal;HPM_P1;HPM_P2
2023/10/04 00:00:20;;;;;;;7.88;1.30;;;;;;;;;;4959236;28;20041;-78
2023/10/04 00:02:49;;;;;;;5.78;1.27;;;;;;;;;;4958745;28;20437;-78
2023/10/04 00:05:16;;;;;;;5.85;0.95;;;;;;;;;;4958950;28;20118;-77
2023/10/04 00:07:46;;;;;;;8.80;1.70;;;;;;;;;;4958480;28;20024;-78
2023/10/04 00:10:12;;;;;;;5.43;2.45;;;;;;;;;;4959067;28;20019;-78
2023/10/04 00:12:39;;;;;;;8.15;1.60;;;;;;;;;;4958572;28;20070;-78
2023/10/04 00:15:12;;;;;;;10.43;1.80;;;;;;;;;;4958717;28;20029;-78
2023/10/04 00:17:41;;;;;;;6.75;1.20;;;;;;;;;;4958911;28;20024;-78
2023/10/04 00:20:09;;;;;;;7.85;1.63;;;;;;;;;;4958528;28;20019;-78
2023/10/04 00:22:36;;;;;;;9.15;2.00;;;;;;;;;;4958700;28;20023;-78
2023/10/04 00:25:03;;;;;;;9.38;1.70;;;;;;;;;;4958546;28;20070;-78
2023/10/04 00:27:30;;;;;;;5.63;1.33;;;;;;;;;;4958160;28;20047;-78
2023/10/04 00:29:56;;;;;;;8.73;1.90;;;;;;;;;;4958666;28;20050;-78
2023/10/04 00:32:22;;;;;;;11.15;1.67;;;;;;;;;;4958083;28;20438;-77
2023/10/04 00:34:48;;;;;;;12.50;1.77;;;;;;;;;;4958350;28;20027;-78
2023/10/04 00:37:15;;;;;;;5.82;1.30;;;;;;;;;;4958431;28;20447;-78
2023/10/04 00:39:41;;;;;;;10.80;2.00;;;;;;;;;;4958440;28;20056;-78
2023/10/04 00:42:09;;;;;;;6.72;2.10;;;;;;;;;;4957917;28;20019;-78
2023/10/04 00:44:36;;;;;;;6.05;1.30;;;;;;;;;;4957752;28;20043;-77
2023/10/04 00:47:05;;;;;;;4.47;1.30;;;;;;;;;;4957880;28;20050;-78
2023/10/04 00:49:32;;;;;;;8.48;1.50;;;;;;;;;;4958225;28;20030;-78
2023/10/04 00:52:00;;;;;;;5.65;1.25;;;;;;;;;;4957707;28;20474;-78
2023/10/04 00:54:26;;;;;;;8.43;1.35;;;;;;;;;;4957747;28;20055;-78
2023/10/04 00:56:52;;;;;;;7.00;1.92;;;;;;;;;;4957685;28;20027;-78
2023/10/04 00:59:18;;;;;;;7.90;1.98;;;;;;;;;;4958489;28;20038;-78
2023/10/04 01:01:44;;;;;;;8.15;1.60;;;;;;;;;;4958314;28;20458;-78
2023/10/04 01:04:10;;;;;;;9.93;1.60;;;;;;;;;;4957744;28;20426;-78
2023/10/04 01:06:37;;;;;;;9.90;1.65;;;;;;;;;;4958098;28;20091;-78
2023/10/04 01:09:05;;;;;;;10.70;1.65;;;;;;;;;;4957364;28;20478;-78
2023/10/04 01:11:37;;;;;;;6.50;1.58;;;;;;;;;;4958602;28;20027;-78
2023/10/04 01:14:09;;;;;;;8.27;1.52;;;;;;;;;;4958654;28;20023;-78
2023/10/04 01:16:41;;;;;;;9.88;1.50;;;;;;;;;;4964190;28;20030;-78
2023/10/04 01:19:07;;;;;;;6.82;2.10;;;;;;;;;;4964178;28;20027;-78
2023/10/04 01:21:33;;;;;;;9.18;1.77;;;;;;;;;;4964238;28;20023;-78
2023/10/04 01:24:00;;;;;;;8.63;1.95;;;;;;;;;;4958273;28;20110;-78
2023/10/04 01:26:26;;;;;;;6.10;1.50;;;;;;;;;;4956828;28;20027;-78
2023/10/04 01:28:52;;;;;;;7.90;2.20;;;;;;;;;;4956936;28;20426;-78
2023/10/04 01:31:19;;;;;;;8.25;1.70;;;;;;;;;;4956479;28;20023;-78
2023/10/04 01:33:46;;;;;;;9.75;1.80;;;;;;;;;;4956989;28;20031;-78
2023/10/04 01:36:12;;;;;;;7.72;1.67;;;;;;;;;;4956322;28;20027;-78
2023/10/04 01:38:38;;;;;;;12.02;2.05;;;;;;;;;;4956358;28;20023;-78
2023/10/04 01:41:04;;;;;;;11.07;1.80;;;;;;;;;;4956728;28;20027;-78
2023/10/04 01:43:30;;;;;;;6.85;1.60;;;;;;;;;;4955770;28;20486;-78
2023/10/04 01:46:00;;;;;;;11.23;2.00;;;;;;;;;;4956292;28;20208;-78
2023/10/04 01:48:26;;;;;;;9.93;1.80;;;;;;;;;;4956207;28;20046;-78
2023/10/04 01:50:53;;;;;;;10.52;1.70;;;;;;;;;;4956446;28;20038;-78
2023/10/04 01:53:25;;;;;;;7.05;1.45;;;;;;;;;;4956198;28;20023;-78
2023/10/04 01:55:52;;;;;;;6.05;1.25;;;;;;;;;;4954883;29;20019;-78
2023/10/04 01:58:23;;;;;;;12.90;1.90;;;;;;;;;;4956232;28;20019;-78
2023/10/04 02:00:49;;;;;;;7.07;1.60;;;;;;;;;;4957118;28;20020;-78
2023/10/04 02:03:16;;;;;;;7.05;1.63;;;;;;;;;;4955997;28;20058;-77
2023/10/04 02:05:42;;;;;;;3.45;1.15;;;;;;;;;;4956628;28;20054;-78
2023/10/04 02:08:12;;;;;;;9.32;1.75;;;;;;;;;;4956621;28;20031;-78
2023/10/04 02:10:38;;;;;;;;;;;;;;;;;;4956667;28;20026;-78
2023/10/04 02:13:08;;;;;;;13.43;1.80;;;;;;;;;;4955983;29;20000;-78
2023/10/04 02:15:35;;;;;;;10.10;1.65;;;;;;;;;;4956142;28;20015;-78
2023/10/04 02:18:01;;;;;;;7.80;1.50;;;;;;;;;;4955083;29;20039;-77
2023/10/04 02:20:28;;;;;;;9.32;2.00;;;;;;;;;;4956142;28;20429;-78
2023/10/04 02:22:54;;;;;;;8.25;1.92;;;;;;;;;;4955717;28;20086;-78
2023/10/04 02:25:21;;;;;;;7.93;1.70;;;;;;;;;;4955784;28;20027;-78
2023/10/04 02:27:49;;;;;;;5.80;1.67;;;;;;;;;;4956128;28;20030;-78
2023/10/04 02:30:19;;;;;;;7.30;1.65;;;;;;;;;;4956612;28;20462;-78
2023/10/04 02:32:45;;;;;;;8.73;1.67;;;;;;;;;;4956857;28;20030;-78
2023/10/04 02:35:21;;;;;;;11.90;1.55;;;;;;;;;;4955797;28;20053;-77
2023/10/04 02:37:47;;;;;;;8.82;1.80;;;;;;;;;;4956008;28;20030;-78
2023/10/04 02:40:16;;;;;;;9.60;2.05;;;;;;;;;;4955704;28;20027;-78
2023/10/04 02:42:47;;;;;;;7.57;1.60;;;;;;;;;;4955648;28;20035;-78
2023/10/04 02:45:18;;;;;;;11.95;1.80;;;;;;;;;;4955654;28;20446;-78
2023/10/04 02:47:48;;;;;;;9.25;1.75;;;;;;;;;;4956318;28;20446;-78
2023/10/04 02:50:19;;;;;;;7.88;2.20;;;;;;;;;;4955641;28;20024;-78
2023/10/04 02:52:45;;;;;;;8.93;1.90;;;;;;;;;;4955934;28;20043;-77
2023/10/04 02:55:16;;;;;;;6.93;1.40;;;;;;;;;;4956487;28;20493;-78
2023/10/04 02:57:51;;;;;;;7.65;1.80;;;;;;;;;;4959735;28;20047;-78
2023/10/04 03:00:19;;;;;;;10.13;1.90;;;;;;;;;;4959754;28;20086;-78
2023/10/04 03:02:50;;;;;;;8.25;1.85;;;;;;;;;;4959701;28;20019;-78
2023/10/04 03:05:18;;;;;;;8.23;1.67;;;;;;;;;;4959706;28;20377;-78
2023/10/04 03:07:45;;;;;;;9.73;1.70;;;;;;;;;;4959731;28;20023;-78
2023/10/04 03:10:12;;;;;;;8.38;1.73;;;;;;;;;;4959320;28;20450;-78
2023/10/04 03:12:40;;;;;;;6.97;1.60;;;;;;;;;;4959435;28;20023;-78
2023/10/04 03:15:07;;;;;;;8.95;1.83;;;;;;;;;;4959939;28;20023;-78
2023/10/04 03:17:33;;;;;;;7.22;2.17;;;;;;;;;;4959110;28;20022;-78
2023/10/04 03:20:00;;;;;;;6.78;1.80;;;;;;;;;;4959525;28;20502;-78
2023/10/04 03:22:28;;;;;;;10.23;2.30;;;;;;;;;;4957885;29;20031;-78
2023/10/04 03:24:54;;;;;;;12.02;2.00;;;;;;;;;;4959711;28;20485;-78
2023/10/04 03:27:24;;;;;;;7.32;1.65;;;;;;;;;;4959127;28;20051;-78
2023/10/04 03:29:51;;;;;;;8.37;2.63;;;;;;;;;;4959382;28;20459;-78
2023/10/04 03:32:18;;;;;;;10.30;2.20;;;;;;;;;;4959152;28;20023;-78
2023/10/04 03:34:44;;;;;;;6.90;1.77;;;;;;;;;;4959187;28;20047;-78
2023/10/04 03:37:14;;;;;;;5.10;1.85;;;;;;;;;;4959432;28;20110;-78
2023/10/04 03:39:40;;;;;;;9.50;1.90;;;;;;;;;;4958819;28;20031;-78
2023/10/04 03:42:06;;;;;;;7.45;1.85;;;;;;;;;;4958657;28;20038;-78
2023/10/04 03:44:32;;;;;;;9.07;2.03;;;;;;;;;;4958802;28;20054;-77
2023/10/04 03:46:58;;;;;;;13.93;2.35;;;;;;;;;;4958441;28;20054;-77
2023/10/04 03:49:25;;;;;;;10.25;1.77;;;;;;;;;;4959194;28;20074;-78
2023/10/04 03:51:52;;;;;;;11.38;2.03;;;;;;;;;;4958644;28;20083;-78
2023/10/04 03:54:19;;;;;;;9.88;2.40;;;;;;;;;;4958992;28;20023;-78
2023/10/04 03:56:45;;;;;;;9.40;1.92;;;;;;;;;;4958641;28;20035;-78
2023/10/04 03:59:11;;;;;;;7.85;2.08;;;;;;;;;;4958564;28;20059;-78
2023/10/04 04:01:37;;;;;;;11.90;2.38;;;;;;;;;;4959024;28;20402;-78
2023/10/04 04:04:04;;;;;;;8.80;1.85;;;;;;;;;;4958334;28;20110;-78
2023/10/04 04:06:30;;;;;;;8.80;1.92;;;;;;;;;;4958038;28;20450;-78
2023/10/04 04:09:01;;;;;;;10.40;2.17;;;;;;;;;;4957868;28;20082;-78
2023/10/04 04:11:27;;;;;;;10.38;2.38;;;;;;;;;;4959019;28;20058;-78
2023/10/04 04:13:55;;;;;;;11.98;2.15;;;;;;;;;;4958378;28;20038;-78
2023/10/04 04:16:21;;;;;;;6.53;2.15;;;;;;;;;;4958768;28;20062;-78
2023/10/04 04:18:51;;;;;;;11.10;2.70;;;;;;;;;;4958075;28;20027;-78
2023/10/04 04:21:17;;;;;;;11.70;2.50;;;;;;;;;;4958909;28;20031;-78
2023/10/04 04:23:43;;;;;;;11.55;3.00;;;;;;;;;;4957965;28;20062;-78
2023/10/04 04:26:10;;;;;;;12.73;2.58;;;;;;;;;;4958241;28;20050;-78
2023/10/04 04:28:37;;;;;;;10.68;2.97;;;;;;;;;;4958316;28;20030;-78
2023/10/04 04:31:14;;;;;;;11.10;2.58;;;;;;;;;;4958497;28;20094;-78
2023/10/04 04:33:40;;;;;;;10.20;3.05;;;;;;;;;;4958219;28;20074;-78
2023/10/04 04:36:12;;;;;;;13.02;3.10;;;;;;;;;;4959511;28;20027;-79
2023/10/04 04:38:38;;;;;;;11.48;2.92;;;;;;;;;;4961136;28;20029;-79
2023/10/04 04:41:12;;;;;;;10.40;2.80;;;;;;;;;;4961188;28;20023;-79
2023/10/04 04:43:38;;;;;;;11.50;2.60;;;;;;;;;;4961265;28;20351;-78
2023/10/04 04:46:09;;;;;;;11.13;3.10;;;;;;;;;;4959803;28;20127;-79
2023/10/04 04:48:36;;;;;;;10.35;3.15;;;;;;;;;;4961942;28;20027;-78
2023/10/04 04:51:12;;;;;;;10.55;2.20;;;;;;;;;;4961146;28;20052;-79
2023/10/04 04:53:42;;;;;;;11.57;2.80;;;;;;;;;;4961432;28;20031;-79
2023/10/04 04:56:14;;;;;;;11.18;2.67;;;;;;;;;;4961883;28;20023;-79
2023/10/04 04:58:44;;;;;;;12.07;2.97;;;;;;;;;;4957033;28;20027;-77
2023/10/04 05:01:13;;;;;;;10.82;3.08;;;;;;;;;;4957702;28;20031;-77
2023/10/04 05:03:45;;;;;;;10.10;2.63;;;;;;;;;;4957430;28;20035;-77
2023/10/04 05:06:14;;;;;;;10.38;2.83;;;;;;;;;;4957483;28;20102;-77
2023/10/04 05:08:43;;;;;;;10.63;2.78;;;;;;;;;;4956966;28;20021;-77
2023/10/04 05:11:09;;;;;;;9.43;2.22;;;;;;;;;;4957484;28;20030;-77
2023/10/04 05:13:36;;;;;;;14.13;2.75;;;;;;;;;;4956882;28;20038;-77
2023/10/04 05:16:02;;;;;;;12.07;2.75;;;;;;;;;;4957012;28;20019;-77
2023/10/04 05:18:29;;;;;;;11.77;2.60;;;;;;;;;;4956765;28;20418;-77
2023/10/04 05:20:55;;;;;;;11.07;2.20;;;;;;;;;;4956451;28;20031;-77
2023/10/04 05:23:25;;;;;;;12.48;2.58;;;;;;;;;;4956932;28;20086;-77
2023/10/04 05:25:52;;;;;;;8.07;2.33;;;;;;;;;;4956880;28;20042;-77
2023/10/04 05:28:18;;;;;;;9.10;2.22;;;;;;;;;;4956997;28;20034;-77
2023/10/04 05:30:46;;;;;;;8.63;2.35;;;;;;;;;;4956841;28;20027;-77
2023/10/04 05:33:13;;;;;;;10.18;2.30;;;;;;;;;;4956630;28;20031;-77
2023/10/04 05:35:40;;;;;;;10.48;2.72;;;;;;;;;;4956420;28;20019;-77
2023/10/04 05:38:07;;;;;;;10.93;2.65;;;;;;;;;;4957436;28;20057;-77
2023/10/04 05:40:35;;;;;;;9.48;2.65;;;;;;;;;;4957589;28;20023;-77
2023/10/04 05:43:02;;;;;;;8.70;2.53;;;;;;;;;;4957376;28;20032;-77
2023/10/04 05:45:28;;;;;;;10.35;2.47;;;;;;;;;;4956631;28;20051;-77
2023/10/04 05:47:55;;;;;;;8.40;2.35;;;;;;;;;;4956356;28;20110;-77
2023/10/04 05:50:22;;;;;;;7.70;2.35;;;;;;;;;;4956162;29;20082;-77
2023/10/04 05:52:51;;;;;;;8.07;2.30;;;;;;;;;;4956022;28;20027;-77
2023/10/04 05:55:18;;;;;;;11.27;2.75;;;;;;;;;;4955991;28;20027;-78
2023/10/04 05:57:45;;;;;;;10.18;2.67;;;;;;;;;;4955946;28;20082;-77
2023/10/04 06:02:48;;;;;;;14.55;2.53;;;;;;;;;;4956498;28;20068;-77
2023/10/04 06:05:14;;;;;;;15.00;2.60;;;;;;;;;;4956122;28;20023;-77
2023/10/04 06:07:40;;;;;;;7.93;2.28;;;;;;;;;;4955859;28;20111;-77
2023/10/04 06:10:06;;;;;;;8.20;2.28;;;;;;;;;;4955810;28;20459;-77
2023/10/04 06:12:32;;;;;;;10.30;2.67;;;;;;;;;;4956718;28;20027;-77
2023/10/04 06:14:59;;;;;;;9.30;2.50;;;;;;;;;;4956104;28;20418;-77
2023/10/04 06:17:25;;;;;;;9.10;2.53;;;;;;;;;;4955983;28;20484;-77
2023/10/04 06:19:54;;;;;;;8.95;3.03;;;;;;;;;;4955924;28;20027;-77
2023/10/04 06:22:20;;;;;;;12.55;2.80;;;;;;;;;;4955657;28;20386;-77
2023/10/04 06:24:46;;;;;;;9.07;2.28;;;;;;;;;;4956621;28;20042;-77
2023/10/04 06:27:13;;;;;;;8.63;2.55;;;;;;;;;;4956343;28;20019;-78
2023/10/04 06:29:39;;;;;;;12.50;2.85;;;;;;;;;;4956498;28;20059;-77
2023/10/04 06:32:05;;;;;;;8.88;2.40;;;;;;;;;;4955787;28;20078;-77
2023/10/04 06:34:31;;;;;;;9.45;2.35;;;;;;;;;;4955617;28;20035;-77
2023/10/04 06:36:58;;;;;;;10.38;2.28;;;;;;;;;;4960377;28;20031;-77
2023/10/04 06:39:24;;;;;;;7.65;2.28;;;;;;;;;;4965301;28;20079;-77
2023/10/04 06:41:50;;;;;;;12.70;2.33;;;;;;;;;;4957625;28;20482;-77
2023/10/04 06:44:15;;;;;;;9.40;2.47;;;;;;;;;;4955690;28;20039;-77
2023/10/04 06:46:41;;;;;;;11.95;2.55;;;;;;;;;;4954874;28;20081;-77
2023/10/04 06:49:08;;;;;;;8.98;2.70;;;;;;;;;;4955428;28;20051;-77
2023/10/04 06:51:34;;;;;;;15.30;2.58;;;;;;;;;;4956699;28;20026;-77
2023/10/04 06:54:05;;;;;;;9.80;2.72;;;;;;;;;;4955899;28;20378;-77
2023/10/04 06:56:31;;;;;;;9.32;2.45;;;;;;;;;;4955675;28;20058;-77
2023/10/04 06:58:57;;;;;;;9.00;3.10;;;;;;;;;;4955410;28;20058;-77
2023/10/04 07:01:23;;;;;;;12.80;3.08;;;;;;;;;;4955782;28;20039;-77
2023/10/04 07:03:48;;;;;;;15.13;3.13;;;;;;;;;;4955208;28;20510;-77
2023/10/04 07:06:14;;;;;;;9.65;2.63;;;;;;;;;;4955575;28;20034;-77
2023/10/04 07:08:40;;;;;;;10.48;2.90;;;;;;;;;;4955341;28;20485;-77
2023/10/04 07:11:06;;;;;;;8.38;2.97;;;;;;;;;;4955248;28;20039;-77
2023/10/04 07:13:32;;;;;;;8.25;2.75;;;;;;;;;;4955333;28;20031;-77
2023/10/04 07:15:59;;;;;;;9.20;2.75;;;;;;;;;;4955900;28;20031;-77
2023/10/04 07:18:25;;;;;;;11.88;2.92;;;;;;;;;;4955878;28;20046;-78
2023/10/04 07:20:51;;;;;;;10.05;2.42;;;;;;;;;;4955504;28;20480;-78
2023/10/04 07:23:17;;;;;;;14.15;3.13;;;;;;;;;;4955665;28;20031;-78
2023/10/04 07:25:50;;;;;;;11.48;3.08;;;;;;;;;;4955401;28;20023;-78
2023/10/04 07:28:16;;;;;;;8.88;2.95;;;;;;;;;;4955052;28;20026;-78
2023/10/04 07:30:43;;;;;;;11.35;3.08;;;;;;;;;;4955363;28;20055;-78
2023/10/04 07:33:09;;;;;;;12.63;3.05;;;;;;;;;;4955061;28;20113;-78
2023/10/04 07:35:37;;;;;;;11.82;3.10;;;;;;;;;;4955857;28;20023;-78
2023/10/04 07:38:04;;;;;;;14.38;3.45;;;;;;;;;;4955277;28;20415;-78
2023/10/04 07:40:31;;;;;;;12.18;3.20;;;;;;;;;;4955784;28;20035;-78
2023/10/04 07:42:59;;;;;;;10.30;2.90;;;;;;;;;;4956747;28;20067;-78
2023/10/04 07:45:25;;;;;;;10.65;3.00;;;;;;;;;;4958783;28;20074;-77
2023/10/04 07:47:52;;;;;;;9.50;2.70;;;;;;;;;;4959484;28;20028;-78
2023/10/04 07:50:23;;;;;;;8.57;2.33;;;;;;;;;;4963327;28;20042;-78
2023/10/04 07:52:50;;;;;;;14.50;3.22;;;;;;;;;;4963516;28;20020;-78
2023/10/04 07:55:19;;;;;;;8.98;2.63;;;;;;;;;;4959098;28;20508;-78
2023/10/04 07:57:50;;;;;;;6.57;2.60;;;;;;;;;;4964402;28;20051;-78
2023/10/04 08:00:16;;;;;;;11.27;3.13;;;;;;;;;;4962050;28;20034;-78
2023/10/04 08:02:49;;;;;;;9.60;2.50;;;;;;;;;;4958546;28;20036;-78
2023/10/04 08:05:23;;;;;;;9.57;2.97;;;;;;;;;;4958934;28;20470;-78
2023/10/04 08:07:50;;;;;;;11.15;3.28;;;;;;;;;;4958806;28;20103;-78
2023/10/04 08:10:16;;;;;;;10.68;2.92;;;;;;;;;;4958217;28;20489;-78
2023/10/04 08:12:43;;;;;;;11.15;3.00;;;;;;;;;;4958428;28;20027;-78
2023/10/04 08:15:13;;;;;;;11.27;3.55;;;;;;;;;;4958730;28;20106;-78
2023/10/04 08:17:40;;;;;;;13.48;3.22;;;;;;;;;;4958838;28;20019;-78
2023/10/04 08:20:06;;;;;;;9.82;3.60;;;;;;;;;;4958870;28;20023;-78
2023/10/04 08:22:32;;;;;;;7.43;2.78;;;;;;;;;;4959615;28;20069;-78
2023/10/04 08:24:58;;;;;;;10.00;2.92;;;;;;;;;;4959329;28;20078;-78
2023/10/04 08:27:24;;;;;;;7.60;2.50;;;;;;;;;;4959430;28;20024;-78
2023/10/04 08:29:50;;;;;;;11.60;3.17;;;;;;;;;;4959690;28;20035;-78
2023/10/04 08:32:17;;;;;;;9.00;2.72;;;;;;;;;;4959349;28;20023;-78
2023/10/04 08:34:43;;;;;;;12.35;3.22;;;;;;;;;;4959579;28;20430;-78
2023/10/04 08:37:09;;;;;;;6.68;2.70;;;;;;;;;;4959608;28;20110;-78
2023/10/04 08:39:37;;;;;;;10.45;3.17;;;;;;;;;;4958369;28;20435;-78
2023/10/04 08:42:03;;;;;;;8.75;2.60;;;;;;;;;;4958142;28;20023;-78
2023/10/04 08:44:30;;;;;;;6.93;2.40;;;;;;;;;;4959401;28;20043;-78
2023/10/04 08:46:58;;;;;;;9.13;3.08;;;;;;;;;;4958801;28;20537;-78
2023/10/04 08:49:25;;;;;;;8.13;3.13;;;;;;;;;;4958083;28;20397;-78
2023/10/04 08:51:55;;;;;;;8.57;3.25;;;;;;;;;;4958166;28;20023;-78
2023/10/04 08:54:23;;;;;;;10.50;3.53;;;;;;;;;;4958156;28;20027;-78
2023/10/04 08:56:51;;;;;;;7.75;2.90;;;;;;;;;;4958184;28;20055;-78
2023/10/04 08:59:18;;;;;;;10.75;2.78;;;;;;;;;;4958149;28;20114;-78
2023/10/04 09:01:46;;;;;;;5.15;2.47;;;;;;;;;;4957845;28;20079;-78
2023/10/04 09:04:13;;;;;;;7.32;3.17;;;;;;;;;;4957818;28;20470;-78
2023/10/04 09:06:42;;;;;;;9.82;3.10;;;;;;;;;;4957748;28;20031;-78
2023/10/04 09:09:11;;;;;;;10.05;3.15;;;;;;;;;;4957395;28;20374;-78
2023/10/04 09:11:37;;;;;;;6.47;2.65;;;;;;;;;;4956071;29;20374;-78
2023/10/04 09:14:04;;;;;;;9.80;3.00;;;;;;;;;;4957599;28;20032;-78
2023/10/04 09:16:31;;;;;;;10.02;3.50;;;;;;;;;;4957410;28;20382;-78
2023/10/04 09:19:18;;;;;;;8.88;3.22;;;;;;;;;;4957393;28;20028;-78
2023/10/04 09:21:47;;;;;;;7.18;2.88;;;;;;;;;;4957274;28;20027;-78
2023/10/04 09:24:14;;;;;;;8.50;2.90;;;;;;;;;;4956768;28;20086;-78
2023/10/04 09:26:43;;;;;;;11.73;3.40;;;;;;;;;;4956786;28;20019;-78
2023/10/04 09:29:11;;;;;;;9.80;3.20;;;;;;;;;;4957606;28;20106;-78
2023/10/04 09:31:47;;;;;;;8.63;3.05;;;;;;;;;;4957966;28;20027;-78
2023/10/04 09:34:16;;;;;;;13.63;4.03;;;;;;;;;;4957087;28;20426;-78
2023/10/04 09:36:42;;;;;;;11.18;3.72;;;;;;;;;;4957038;28;20102;-78
2023/10/04 09:39:10;;;;;;;12.43;3.60;;;;;;;;;;4956830;28;20027;-78
2023/10/04 09:41:44;;;;;;;7.28;2.78;;;;;;;;;;4956950;28;20023;-78
2023/10/04 09:44:20;;;;;;;10.65;3.38;;;;;;;;;;4957214;28;20384;-78
2023/10/04 09:46:48;;;;;;;9.57;3.40;;;;;;;;;;4955569;28;20051;-78
2023/10/04 09:49:16;;;;;;;9.70;3.28;;;;;;;;;;4956541;28;20023;-78
2023/10/04 09:51:42;;;;;;;10.48;3.20;;;;;;;;;;4957170;28;20466;-78
2023/10/04 09:54:09;;;;;;;9.45;3.13;;;;;;;;;;4956512;28;20517;-78
2023/10/04 09:56:41;;;;;;;9.85;3.25;;;;;;;;;;4955443;29;20433;-78
2023/10/04 09:59:08;;;;;;;9.32;3.30;;;;;;;;;;4956772;28;20038;-78
2023/10/04 10:01:34;;;;;;;8.27;3.10;;;;;;;;;;4957621;28;20023;-78
2023/10/04 10:04:02;;;;;;;11.63;3.65;;;;;;;;;;4956325;28;20363;-78
2023/10/04 10:06:33;;;;;;;9.95;3.60;;;;;;;;;;4956722;28;20095;-78
2023/10/04 10:09:00;;;;;;;9.07;3.60;;;;;;;;;;4963098;28;20102;-78
2023/10/04 10:11:27;;;;;;;10.45;3.67;;;;;;;;;;4964488;28;20027;-78
2023/10/04 10:13:54;;;;;;;12.65;3.25;;;;;;;;;;4964740;28;20027;-78
2023/10/04 10:16:20;;;;;;;11.55;3.55;;;;;;;;;;4964110;28;20034;-78
2023/10/04 10:18:47;;;;;;;9.68;3.58;;;;;;;;;;4957893;29;20034;-78
2023/10/04 10:21:13;;;;;;;9.02;2.60;;;;;;;;;;4958532;28;20470;-78
2023/10/04 10:23:55;;;;;;;9.40;3.40;;;;;;;;;;4958286;28;20035;-78
2023/10/04 10:26:30;;;;;;;9.05;3.25;;;;;;;;;;4957768;28;20502;-78
2023/10/04 10:28:59;;;;;;;7.95;3.15;;;;;;;;;;4958343;28;20020;-78
2023/10/04 10:31:26;;;;;;;11.70;3.17;;;;;;;;;;4958147;28;20087;-78
2023/10/04 10:33:56;;;;;;;9.23;3.13;;;;;;;;;;4957708;28;20039;-78
2023/10/04 10:36:23;;;;;;;9.65;3.35;;;;;;;;;;4957303;28;20023;-78
2023/10/04 10:38:50;;;;;;;9.95;2.55;;;;;;;;;;4956695;28;20023;-78
2023/10/04 10:41:31;;;;;;;13.65;3.97;;;;;;;;;;4957353;28;20102;-78
2023/10/04 10:44:13;;;;;;;10.57;3.13;;;;;;;;;;4957003;28;20090;-78
2023/10/04 10:46:59;;;;;;;9.80;3.05;;;;;;;;;;4956375;28;20472;-78
2023/10/04 10:49:41;;;;;;;10.88;3.15;;;;;;;;;;4961821;28;20031;-78
2023/10/04 10:52:23;;;;;;;7.47;2.92;;;;;;;;;;4959464;28;20032;-78
2023/10/04 10:54:50;;;;;;;10.25;3.15;;;;;;;;;;4958480;29;20127;-78
2023/10/04 10:57:16;;;;;;;7.65;2.58;;;;;;;;;;4956390;28;20023;-78
2023/10/04 10:59:43;;;;;;;9.75;2.58;;;;;;;;;;4955918;28;20030;-78
2023/10/04 11:02:09;;;;;;;6.50;2.20;;;;;;;;;;4956656;28;20069;-77
2023/10/04 11:04:35;;;;;;;8.48;2.30;;;;;;;;;;4956052;28;20108;-78
2023/10/04 11:07:01;;;;;;;8.70;2.50;;;;;;;;;;4955636;28;20031;-78
2023/10/04 11:09:30;;;;;;;14.20;2.78;;;;;;;;;;4957451;28;20038;-78
2023/10/04 11:11:56;;;;;;;6.75;2.20;;;;;;;;;;4963121;28;20555;-78
2023/10/04 11:14:23;;;;;;;7.90;2.30;;;;;;;;;;4964979;28;20073;-78
2023/10/04 11:16:51;;;;;;;7.13;2.20;;;;;;;;;;4965290;28;20086;-78
2023/10/04 11:19:17;;;;;;;9.40;1.92;;;;;;;;;;4961449;28;20030;-78
2023/10/04 11:21:45;;;;;;;7.65;2.10;;;;;;;;;;4959952;28;20024;-78
2023/10/04 11:24:12;;;;;;;9.65;2.08;;;;;;;;;;4960004;28;20098;-78
2023/10/04 11:26:42;;;;;;;5.60;2.03;;;;;;;;;;4959702;28;20538;-78
2023/10/04 11:29:09;;;;;;;7.97;2.20;;;;;;;;;;4959558;28;20019;-78
2023/10/04 11:31:35;;;;;;;7.03;2.10;;;;;;;;;;4959413;28;20026;-78
2023/10/04 11:34:01;;;;;;;5.47;2.03;;;;;;;;;;4959562;28;20431;-78
2023/10/04 11:36:27;;;;;;;7.68;2.08;;;;;;;;;;4960626;28;20102;-78
2023/10/04 11:38:54;;;;;;;5.10;2.03;;;;;;;;;;4960412;28;20047;-78
2023/10/04 11:41:20;;;;;;;8.50;2.20;;;;;;;;;;4960232;28;20100;-78
2023/10/04 11:43:46;;;;;;;7.82;2.33;;;;;;;;;;4960207;28;20032;-78
2023/10/04 11:46:12;;;;;;;5.60;1.83;;;;;;;;;;4958490;28;20086;-78
2023/10/04 11:48:38;;;;;;;7.32;2.30;;;;;;;;;;4959775;28;20034;-78
2023/10/04 11:51:04;;;;;;;8.85;1.98;;;;;;;;;;4959550;28;20031;-78
2023/10/04 11:53:39;;;;;;;5.82;1.95;;;;;;;;;;4959579;28;20059;-78
2023/10/04 11:56:06;;;;;;;6.47;1.98;;;;;;;;;;4958882;28;20027;-78
2023/10/04 11:58:33;;;;;;;5.60;1.65;;;;;;;;;;4959044;28;20034;-78
2023/10/04 12:01:11;;;;;;;5.75;1.60;;;;;;;;;;4959164;29;20031;-78
2023/10/04 12:03:38;;;;;;;6.43;1.85;;;;;;;;;;4959079;28;20039;-78
2023/10/04 12:06:06;;;;;;;7.25;2.13;;;;;;;;;;4959442;28;20022;-78
2023/10/04 12:08:32;;;;;;;6.43;1.77;;;;;;;;;;4959344;28;20027;-78
2023/10/04 12:11:01;;;;;;;8.65;2.00;;;;;;;;;;4958986;28;20103;-78
2023/10/04 12:13:27;;;;;;;4.38;1.70;;;;;;;;;;4958689;28;20095;-78
2023/10/04 12:15:54;;;;;;;7.57;1.63;;;;;;;;;;4960117;28;20058;-78
2023/10/04 12:18:20;;;;;;;7.93;2.00;;;;;;;;;;4959813;28;20099;-78
2023/10/04 12:20:46;;;;;;;8.38;1.83;;;;;;;;;;4958287;28;20019;-78
2023/10/04 12:23:12;;;;;;;4.68;1.60;;;;;;;;;;4960060;28;20043;-78
2023/10/04 12:25:38;;;;;;;8.38;1.80;;;;;;;;;;4959568;28;20481;-78
2023/10/04 12:28:08;;;;;;;6.43;1.88;;;;;;;;;;4957331;28;20549;-78
2023/10/04 12:30:34;;;;;;;8.75;1.70;;;;;;;;;;4960009;29;20025;-78
2023/10/04 12:33:02;;;;;;;7.00;1.80;;;;;;;;;;4960458;28;20394;-78
2023/10/04 12:35:28;;;;;;;9.32;1.70;;;;;;;;;;4959968;28;20027;-78
2023/10/04 12:37:54;;;;;;;7.75;1.95;;;;;;;;;;4960416;28;20139;-79
2023/10/04 12:40:29;;;;;;;5.05;1.98;;;;;;;;;;4960096;28;20019;-78
2023/10/04 12:42:55;;;;;;;5.88;1.67;;;;;;;;;;4959833;28;20034;-79
2023/10/04 12:45:21;;;;;;;6.13;1.88;;;;;;;;;;4960932;28;20027;-78
2023/10/04 12:47:47;;;;;;;6.43;1.65;;;;;;;;;;4959539;29;20057;-78
2023/10/04 12:50:17;;;;;;;7.32;1.50;;;;;;;;;;4960195;28;20031;-79
2023/10/04 12:52:44;;;;;;;5.15;1.70;;;;;;;;;;4959981;28;20029;-78
2023/10/04 12:55:11;;;;;;;8.38;1.75;;;;;;;;;;4959012;28;20039;-78
2023/10/04 12:57:38;;;;;;;5.28;1.95;;;;;;;;;;4960154;28;20023;-78
2023/10/04 13:00:13;;;;;;;8.68;1.73;;;;;;;;;;4959669;28;20050;-78
2023/10/04 13:02:39;;;;;;;8.10;2.38;;;;;;;;;;4960262;28;20457;-78
2023/10/04 13:05:07;;;;;;;5.82;1.88;;;;;;;;;;4959601;28;20042;-78
2023/10/04 13:07:33;;;;;;;5.70;1.83;;;;;;;;;;4959374;28;20027;-78
2023/10/04 13:10:00;;;;;;;7.30;2.03;;;;;;;;;;4957464;28;20491;-78
2023/10/04 13:12:26;;;;;;;7.85;1.70;;;;;;;;;;4958400;28;20066;-78
2023/10/04 13:14:55;;;;;;;7.88;1.67;;;;;;;;;;4958125;28;20475;-78
2023/10/04 13:17:21;;;;;;;5.55;1.88;;;;;;;;;;4959346;28;20046;-78
2023/10/04 13:19:47;;;;;;;4.78;1.48;;;;;;;;;;4957971;28;20023;-78
2023/10/04 13:22:13;;;;;;;6.93;1.65;;;;;;;;;;4958435;28;20076;-78
2023/10/04 13:24:39;;;;;;;6.47;1.45;;;;;;;;;;4957274;28;20039;-78
2023/10/04 13:27:05;;;;;;;4.93;1.55;;;;;;;;;;4956933;28;20442;-78
2023/10/04 13:29:31;;;;;;;5.50;1.30;;;;;;;;;;4956675;28;20106;-78
2023/10/04 13:31:57;;;;;;;7.00;1.20;;;;;;;;;;4956917;28;20034;-78
2023/10/04 13:34:24;;;;;;;4.70;1.05;;;;;;;;;;4958730;28;20562;-78
2023/10/04 13:36:50;;;;;;;5.43;1.17;;;;;;;;;;4963724;28;20091;-78
2023/10/04 13:39:17;;;;;;;4.75;1.20;;;;;;;;;;4956034;28;20023;-78
2023/10/04 13:41:43;;;;;;;5.18;0.98;;;;;;;;;;4958736;28;20032;-78
2023/10/04 13:44:09;;;;;;;4.10;0.82;;;;;;;;;;4960373;28;20043;-78
2023/10/04 13:46:35;;;;;;;5.32;1.15;;;;;;;;;;4955642;28;20083;-78
2023/10/04 13:49:01;;;;;;;5.40;0.98;;;;;;;;;;4957202;28;20031;-78
2023/10/04 13:51:27;;;;;;;5.15;1.30;;;;;;;;;;4956721;28;20027;-78
2023/10/04 13:53:53;;;;;;;5.78;1.40;;;;;;;;;;4956404;28;20039;-78
2023/10/04 13:56:19;;;;;;;5.53;1.10;;;;;;;;;;4956296;28;20031;-77
2023/10/04 13:58:45;;;;;;;4.32;1.23;;;;;;;;;;4956271;28;20031;-77
2023/10/04 14:01:12;;;;;;;3.92;1.52;;;;;;;;;;4956818;28;20414;-77
2023/10/04 14:03:38;;;;;;;6.13;1.10;;;;;;;;;;4956405;28;20031;-77
2023/10/04 14:06:12;;;;;;;6.25;1.30;;;;;;;;;;4956231;28;20382;-77
2023/10/04 14:08:38;;;;;;;5.95;1.10;;;;;;;;;;4956846;28;20361;-78
2023/10/04 14:11:04;;;;;;;4.50;0.70;;;;;;;;;;4956218;28;20490;-77
2023/10/04 14:13:31;;;;;;;6.38;0.95;;;;;;;;;;4955992;28;20122;-77
2023/10/04 14:15:57;;;;;;;4.72;0.90;;;;;;;;;;4956232;28;20015;-77
2023/10/04 14:18:25;;;;;;;4.10;1.10;;;;;;;;;;4955721;28;20015;-77
2023/10/04 14:20:55;;;;;;;5.72;1.10;;;;;;;;;;4955895;28;20106;-77
2023/10/04 14:23:21;;;;;;;5.63;0.90;;;;;;;;;;4955722;28;20031;-77
2023/10/04 14:25:49;;;;;;;5.93;1.10;;;;;;;;;;4955781;28;20078;-77
2023/10/04 14:28:15;;;;;;;5.00;1.15;;;;;;;;;;4955630;28;20118;-77
2023/10/04 14:30:42;;;;;;;3.10;1.02;;;;;;;;;;4956003;28;20467;-77
2023/10/04 14:33:08;;;;;;;7.72;1.48;;;;;;;;;;4955571;28;20386;-77
2023/10/04 14:35:34;;;;;;;3.83;0.80;;;;;;;;;;4955764;28;20039;-77
2023/10/04 14:38:00;;;;;;;5.80;1.25;;;;;;;;;;4955467;28;20031;-77
2023/10/04 14:40:26;;;;;;;4.05;0.80;;;;;;;;;;4955724;28;20028;-77
2023/10/04 14:42:56;;;;;;;6.70;0.90;;;;;;;;;;4956054;28;20359;-77
2023/10/04 14:45:22;;;;;;;;;;;;;;;;;;4956678;28;20032;-77